Calistoga, California
Current Conditions -  °F | °C
As of 2:53 PM on Saturday 20 Dec 2014 (Local Time) from KSTS Reporting Station
Haze Haze  
Wind Chill: 57°   Ceiling: 2700
Heat Index: 57°   Visibility: 4mi
Dew Point: 54°   Wind: 5mph
Humidity: 89%   Direction: 180°S
Pressure: 30.16"   Gusts: NA
Location:  38.58°N, 122.58°W
Report Text: KSTS 202253Z 18004KT 4SM BR FEW018 BKN027 OVC039 14/12 A3016 RMK AO2 SLP206 T01390122
Loading
Personal Weather Stations






























Interactive Weather Map New forecast layout! Learn more

10-Day Weather Forecast

Advertisements
Track Severe Weather on mobile